Latest Coastal Weather Observations for Bunbury

IDW60701

Issued at 8:12 am WST Friday 29 July 2016 (issued every 10 minutes, with the page automatically refreshed every 10 minutes)

About coastal observations | Map of coastal stations | Coastal observations for WA | Marine services | Other Formats
Station Details ID: 009965 Name: BUNBURY Lat: -33.36 Lon: 115.64 Height: 5.2 m
Data from the previous 72 hours. | See also: Recent months at Bunbury
Date/Time
WST
Temp
°C
Wind Pressure Rain since
9am
mm
Weather Cloud Vis
km
Sea
Height
m
Swell
Dir  Spd
kts
Gust
kts
hPa Trend Height
m
Period
s
Dir
29/08:00am 12.3 NNE 5 7 1014.2 - 0.0 - - - - - - -
29/07:30am 11.4 NNE 3 4 1014.6 - 0.0 - - - - - - -
29/07:00am 10.9 NE 3 4 1014.3 - 0.0 - - - - - - -
29/06:30am 10.1 NE 3 4 1014.4 - 0.0 - - - - - - -
29/06:00am 8.9 CALM 0 0 1014.8 - 0.0 - - - - - - -
29/05:30am 9.0 CALM 0 0 1015.1 - 0.0 - - - - - - -
29/05:00am 8.9 E 1 3 1015.0 - 0.0 - - - - - - -
29/04:30am 7.8 CALM 0 0 1015.7 - 0.0 - - - - - - -
29/04:00am 7.3 CALM 0 0 1016.3 - 0.0 - - - - - - -
29/03:30am 8.4 CALM 0 1 1016.7 - 0.0 - - - - - - -
29/03:00am 8.2 E 1 2 1016.9 - 0.0 - - - - - - -
29/02:30am 8.5 CALM 0 0 1017.3 - 0.0 - - - - - - -
29/02:00am 8.8 CALM 0 0 1017.9 - 0.0 - - - - - - -
29/01:30am 9.7 E 2 4 1017.8 - 0.0 - - - - - - -
29/01:00am 9.2 NE 2 2 1018.3 - 0.0 - - - - - - -
29/12:30am 8.9 ENE 2 2 1018.7 - 0.0 - - - - - - -
29/12:00am 9.7 ESE 1 2 1019.1 - 0.0 - - - - - - -
 
Date/Time
WST
Temp
°C
Wind Pressure Rain since
9am
mm
Weather Cloud Vis
km
Sea
Height
m
Swell
Dir  Spd
kts
Gust
kts
hPa Trend Height
m
Period
s
Dir
28/11:30pm 10.3 CALM 0 1 1019.3 - 0.0 - - - - - - -
28/11:00pm 11.2 CALM 0 0 1019.7 - 0.0 - - - - - - -
28/10:30pm 11.4 SE 2 2 1019.8 - 0.0 - - - - - - -
28/10:00pm 11.3 ESE 2 3 1020.0 - 0.0 - - - - - - -
28/09:30pm 10.8 E 2 4 1020.2 - 0.0 - - - - - - -
28/09:00pm - CALM 0 0 1020.7 - 0.0 - - - - - - -
28/08:30pm - CALM 0 0 1020.6 - 0.0 - - - - - - -
28/08:00pm - CALM 0 0 1020.7 - 0.0 - - - - - - -
28/07:30pm - CALM 0 0 1020.6 - 0.0 - - - - - - -
28/07:00pm - SSW 1 1 1020.5 - 0.0 - - - - - - -
28/06:30pm - CALM 0 2 1020.3 - 0.0 - - - - - - -
28/06:00pm 14.4 NNW 1 2 1020.3 - 0.0 - - - - - - -
28/05:30pm 15.8 NW 3 4 1020.2 - 0.0 - - - - - - -
28/05:00pm 17.3 NNW 2 3 1019.9 - 0.0 - - - - - - -
28/04:30pm 18.2 NW 2 3 1019.7 - 0.0 - - - - - - -
28/04:00pm 18.3 WNW 4 5 1019.7 - 0.0 - - - - - - -
28/03:30pm 18.7 NW 4 6 1019.6 - 0.0 - - - - - - -
28/03:00pm 18.8 NW 5 7 1019.5 - 0.0 - - - - - - -
28/02:30pm 18.4 NW 6 7 1019.6 - 0.0 - - - - - - -
28/02:00pm 19.5 NNW 3 5 1019.6 - 0.0 - - - - - - -
28/01:30pm 19.1 NW 3 5 1019.9 - 0.0 - - - - - - -
28/01:00pm 19.3 NW 4 5 1020.3 - 0.0 - - - - - - -
28/12:30pm 18.8 N 4 7 1020.6 - 0.0 - - - - - - -
28/12:00pm 18.1 N 4 5 1021.1 - 0.0 - - - - - - -
28/11:30am 17.6 NNE 3 5 1021.6 - 0.0 - - - - - - -
28/11:00am 16.6 NNE 5 6 1022.0 - 0.0 - - - - - - -
28/10:30am 15.8 NNE 5 7 1022.3 - 0.0 - - - - - - -
28/10:00am 15.1 NE 4 6 1022.5 - 0.0 - - - - - - -
28/09:30am 13.6 NE 3 4 1022.6 - 0.0 - - - - - - -
28/09:00am 12.9 NE 1 2 1022.5 - 0.0 - - - - - - -
28/08:30am 12.2 ENE 3 4 1022.3 - 0.0 - - - - - - -
28/08:00am 11.4 ESE 1 2 1022.1 - 0.0 - - - - - - -
28/07:30am 10.5 NE 2 3 1022.0 - 0.0 - - - - - - -
28/07:00am 10.4 CALM 0 0 1021.9 - 0.0 - - - - - - -
28/06:30am 9.9 ENE 2 2 1021.6 - 0.0 - - - - - - -
28/06:00am 10.3 CALM 0 0 1021.8 - 0.0 - - - - - - -
28/05:30am 10.1 E 2 3 1021.4 - 0.0 - - - - - - -
28/05:00am 10.1 NE 1 3 1021.4 - 0.0 - - - - - - -
28/04:30am 10.1 ENE 2 3 1021.7 - 0.0 - - - - - - -
28/04:00am 10.2 CALM 0 1 1021.9 - 0.0 - - - - - - -
28/03:30am 10.2 CALM 0 0 1022.3 - 0.0 - - - - - - -
28/03:00am 10.2 CALM 0 0 1022.2 - 0.0 - - - - - - -
28/02:30am 10.0 CALM 0 0 1022.5 - 0.0 - - - - - - -
28/02:00am 10.3 CALM 0 0 1022.6 - 0.0 - - - - - - -
28/01:30am 10.6 CALM 0 0 1022.4 - 0.0 - - - - - - -
28/01:00am 10.1 CALM 0 0 1022.5 - 0.0 - - - - - - -
28/12:30am 10.3 CALM 0 1 1022.5 - 0.0 - - - - - - -
28/12:00am 10.1 ENE 2 4 1022.6 - 0.0 - - - - - - -
 
Date/Time
WST
Temp
°C
Wind Pressure Rain since
9am
mm
Weather Cloud Vis
km
Sea
Height
m
Swell
Dir  Spd
kts
Gust
kts
hPa Trend Height
m
Period
s
Dir
27/11:30pm 10.7 CALM 0 1 1023.2 - 0.0 - - - - - - -
27/11:00pm 10.6 ESE 1 3 1023.4 - 0.0 - - - - - - -
27/10:30pm 10.9 ESE 4 5 1023.4 - 0.0 - - - - - - -
27/10:00pm 11.0 ESE 1 2 1024.0 - 0.0 - - - - - - -
27/09:30pm 11.1 SE 1 2 1024.4 - 0.0 - - - - - - -
27/09:00pm 11.0 CALM 0 0 1024.3 - 0.0 - - - - - - -
27/08:30pm 11.0 CALM 0 1 1024.3 - 0.0 - - - - - - -
27/08:00pm 10.9 SE 1 2 1024.5 - 0.0 - - - - - - -
27/07:30pm 11.1 CALM 0 0 1024.2 - 0.0 - - - - - - -
27/07:00pm 11.7 CALM 0 0 1024.1 - 0.0 - - - - - - -
27/06:30pm 12.4 S 1 1 1024.1 - 0.0 - - - - - - -
27/06:00pm 13.3 WSW 2 3 1024.2 - 0.0 - - - - - - -
27/05:30pm 13.8 S 1 2 1023.7 - 0.0 - - - - - - -
27/05:00pm 14.6 WSW 3 4 1023.6 - 0.0 - - - - - - -
27/04:30pm 15.2 CALM 0 1 1023.5 - 0.0 - - - - - - -
27/04:00pm 15.8 NW 1 2 1023.5 - 0.0 - - - - - - -
27/03:30pm 16.4 WNW 1 2 1023.7 - 0.0 - - - - - - -
27/03:00pm 16.3 NNW 3 5 1023.6 - 0.0 - - - - - - -
27/02:30pm 16.5 N 4 6 1023.4 - 0.0 - - - - - - -
27/02:00pm 16.5 N 4 6 1023.8 - 0.0 - - - - - - -
27/01:30pm 16.4 NNE 4 7 1024.3 - 0.0 - - - - - - -
27/01:00pm 16.5 N 3 5 1024.8 - 0.0 - - - - - - -
27/12:30pm 16.5 NE 4 6 1025.3 - 0.0 - - - - - - -
27/12:00pm 16.0 NE 4 7 1025.8 - 0.0 - - - - - - -
27/11:30am 15.4 NNE 5 8 1026.3 - 0.0 - - - - - - -
27/11:00am 15.7 NNE 4 7 1026.8 - 0.0 - - - - - - -
27/10:30am 14.9 NE 4 7 1026.9 - 0.0 - - - - - - -
27/10:00am 13.8 NE 3 6 1027.3 - 0.0 - - - - - - -
27/09:30am 12.0 ENE 1 2 1027.2 - 0.0 - - - - - - -
27/09:00am 9.2 E 2 3 1026.9 - 0.0 - - - - - - -
27/08:30am 7.4 E 1 2 1027.2 - 0.0 - - - - - - -
27/08:00am 6.2 CALM 0 0 1027.4 - 0.0 - - - - - - -
27/07:30am 5.2 ESE 1 2 1027.3 - 0.0 - - - - - - -
27/07:00am 5.0 SE 1 1 1027.4 - 0.0 - - - - - - -
27/06:30am 4.9 SSE 1 2 1027.6 - 0.0 - - - - - - -
27/06:00am 5.5 CALM 0 2 1028.1 - 0.0 - - - - - - -
27/05:30am 5.3 CALM 0 0 1027.7 - 0.0 - - - - - - -
27/05:00am 5.6 CALM 0 0 1027.0 - 0.0 - - - - - - -
27/04:30am 6.4 CALM 0 0 1026.9 - 0.0 - - - - - - -
27/04:00am 6.5 CALM 0 1 1027.2 - 0.0 - - - - - - -
27/03:30am 6.5 ESE 1 2 1027.3 - 0.0 - - - - - - -
27/03:00am 7.3 ESE 2 2 1027.7 - 0.0 - - - - - - -
27/02:30am 6.5 CALM 0 0 1027.6 - 0.0 - - - - - - -
27/02:00am 7.8 CALM 0 0 1027.7 - 0.0 - - - - - - -
27/01:30am 8.2 CALM 0 0 1027.7 - 0.0 - - - - - - -
27/01:00am 8.8 SSW 2 3 1027.5 - 0.0 - - - - - - -
27/12:30am 8.8 S 1 1 1027.6 - 0.0 - - - - - - -
27/12:00am 10.9 S 3 3 1027.6 - 0.0 - - - - - - -
 
Date/Time
WST
Temp
°C
Wind Pressure Rain since
9am
mm
Weather Cloud Vis
km
Sea
Height
m
Swell
Dir  Spd
kts
Gust
kts
hPa Trend Height
m
Period
s
Dir
26/11:30pm 11.6 S 1 2 1027.8 - 0.0 - - - - - - -
26/11:00pm 12.2 ESE 1 2 1028.0 - 0.0 - - - - - - -
26/10:30pm 13.3 SSE 1 2 1028.2 - 0.0 - - - - - - -
26/10:00pm 13.7 S 1 3 1028.4 - 0.0 - - - - - - -
26/09:30pm 14.0 S 2 3 1028.5 - 0.0 - - - - - - -
26/09:00pm 14.3 SSW 3 4 1028.6 - 0.0 - - - - - - -
26/08:30pm 14.5 SW 3 6 1028.7 - 0.0 - - - - - - -
26/08:00pm 14.6 SW 3 5 1028.5 - 0.0 - - - - - - -
26/07:30pm 14.8 SSW 3 5 1028.2 - 0.0 - - - - - - -
26/07:00pm 14.9 SW 3 5 1028.0 - 0.0 - - - - - - -
26/06:30pm 15.1 CALM 0 2 1027.8 - 0.0 - - - - - - -
26/06:00pm 15.2 W 1 2 1027.6 - 0.0 - - - - - - -
26/05:30pm 15.3 W 2 2 1027.4 - 0.0 - - - - - - -
26/05:00pm 15.6 W 3 4 1027.2 - 0.0 - - - - - - -
26/04:30pm 15.9 W 3 5 1027.3 - 0.0 - - - - - - -
26/04:00pm 16.6 WNW 5 7 1027.3 - 0.0 - - - - - - -
26/03:30pm 15.8 NW 5 7 1027.2 - 0.0 - - - - - - -
26/03:00pm 16.5 NW 4 6 1027.2 - 0.0 - - - - - - -
26/02:30pm 16.7 WNW 5 8 1027.2 - 0.0 - - - - - - -
26/02:00pm 16.0 WNW 5 7 1027.3 - 0.0 - - - - - - -
26/01:30pm 16.1 WNW 6 8 1027.4 - 0.0 - - - - - - -
26/01:00pm 16.1 W 5 8 1027.6 - 0.0 - - - - - - -
26/12:30pm 16.5 W 4 6 1027.9 - 0.0 - - - - - - -
26/12:00pm 16.2 NNW 3 4 1028.3 - 0.0 - - - - - - -
26/11:30am 15.8 NW 3 5 1028.7 - 0.0 - - - - - - -
26/11:00am 14.4 CALM 0 2 1029.0 - 0.0 - - - - - - -
26/10:30am 13.4 NE 2 4 1029.2 - 0.0 - - - - - - -
26/10:00am 12.4 CALM 0 2 1029.2 - 0.0 - - - - - - -
26/09:30am 11.4 NE 2 2 1029.0 - 0.0 - - - - - - -
26/09:00am 10.5 NE 2 2 1028.9 - 0.0 - - - - - - -
26/08:30am 9.1 ENE 1 3 1028.6 - 0.0 - - - - - - -

Other Formats:

Comma delimited format used in spreadsheet applications
http://www.bom.gov.au/fwo/IDW60701/IDW60701.94604.axf

JavaScript Object Notation format (JSON) in row-major order
http://www.bom.gov.au/fwo/IDW60701/IDW60701.94604.json